Overview Statistics Trail Chart Weather Telemetry Raw packets
 

This is the latest recevied weather packets stored in our database for station/object PY2WOA-13. If no packets are shown the sender has not sent any weather packets the latest 10 day(s).

<< 1 2 3 4 5 6 7 >>
Time Temp. Humidity Pressure Rain* Wind** Luminosity Snow
1788543304 38.33° C 23% 1006.9 hPa - - - -
1788541504 40.56° C 20% 1007.1 hPa - - - -
1788539704 38.33° C 22% 1007.9 hPa - - - -
1788537904 38.33° C 18% 1008.5 hPa - - - -
1788536104 37.78° C 22% 1009.2 hPa - - - -
1788534304 37.78° C 24% 1009.8 hPa - - - -
1788532503 35.56° C 29% 1010.6 hPa - - - -
1788530704 33.33° C 32% 1011.5 hPa - - - -
1788528904 31.67° C 36% 1012.2 hPa - - - -
1788527104 30° C 40% 1012.7 hPa - - - -
1788525304 27.78° C 46% 1013.4 hPa - - - -
1788523504 25.56° C 58% 1013.6 hPa - - - -
1788521704 23.33° C 66% 1013.9 hPa - - - -
1788519903 21.67° C 72% 1013.8 hPa - - - -
1788518104 20° C 76% 1013.8 hPa - - - -
1788516304 18.33° C 76% 1013.8 hPa - - - -
1788514504 17.78° C 76% 1013.5 hPa - - - -
1788512704 17.78° C 79% 1013.3 hPa - - - -
1788510904 16.67° C 80% 1013.1 hPa - - - -
1788509104 17.78° C 77% 1012.5 hPa - - - -
1788507303 17.78° C 79% 1012.5 hPa - - - -
1788505504 18.89° C 77% 1012.7 hPa - - - -
1788503704 19.44° C 76% 1012.8 hPa - - - -
1788501904 18.33° C 73% 1013.1 hPa - - - -
1788500104 18.89° C 72% 1013 hPa - - - -

* Rain since midnight (hover to see other rain measurements)
** Current wind speed in m/s (hover to see current wind gust speed)